sensor_id;sensor_type;location;lat;lon;timestamp;P1;durP1;ratioP1;P2;durP2;ratioP2
44862;SDS011;30597;49.628;10.850;2023-05-23T00:02:19;5.07;;;3.47;;
44862;SDS011;30597;49.628;10.850;2023-05-23T00:04:45;3.80;;;3.50;;
44862;SDS011;30597;49.628;10.850;2023-05-23T00:07:10;4.20;;;3.37;;
44862;SDS011;30597;49.628;10.850;2023-05-23T00:09:36;3.70;;;3.37;;
44862;SDS011;30597;49.628;10.850;2023-05-23T00:12:01;3.70;;;3.40;;
44862;SDS011;30597;49.628;10.850;2023-05-23T00:14:27;3.33;;;3.00;;
44862;SDS011;30597;49.628;10.850;2023-05-23T00:16:57;3.70;;;3.37;;
44862;SDS011;30597;49.628;10.850;2023-05-23T00:19:24;4.13;;;3.73;;
44862;SDS011;30597;49.628;10.850;2023-05-23T00:21:49;3.53;;;3.23;;
44862;SDS011;30597;49.628;10.850;2023-05-23T00:24:17;3.17;;;2.90;;
44862;SDS011;30597;49.628;10.850;2023-05-23T00:26:44;3.47;;;3.17;;
44862;SDS011;30597;49.628;10.850;2023-05-23T00:29:10;3.47;;;3.17;;
44862;SDS011;30597;49.628;10.850;2023-05-23T00:31:43;3.10;;;2.90;;
44862;SDS011;30597;49.628;10.850;2023-05-23T00:34:16;3.83;;;3.50;;
44862;SDS011;30597;49.628;10.850;2023-05-23T00:36:42;3.07;;;2.87;;
44862;SDS011;30597;49.628;10.850;2023-05-23T00:39:08;3.30;;;3.00;;
44862;SDS011;30597;49.628;10.850;2023-05-23T00:41:42;3.40;;;3.13;;
44862;SDS011;30597;49.628;10.850;2023-05-23T00:44:08;4.10;;;3.70;;
44862;SDS011;30597;49.628;10.850;2023-05-23T00:46:34;4.30;;;3.10;;
44862;SDS011;30597;49.628;10.850;2023-05-23T00:49:00;2.83;;;2.63;;
44862;SDS011;30597;49.628;10.850;2023-05-23T00:51:26;3.30;;;3.00;;
44862;SDS011;30597;49.628;10.850;2023-05-23T00:53:52;4.60;;;3.53;;
44862;SDS011;30597;49.628;10.850;2023-05-23T00:56:18;3.40;;;3.10;;
44862;SDS011;30597;49.628;10.850;2023-05-23T00:58:45;3.43;;;3.13;;
44862;SDS011;30597;49.628;10.850;2023-05-23T01:01:11;3.13;;;2.83;;
44862;SDS011;30597;49.628;10.850;2023-05-23T01:03:37;3.00;;;2.80;;
44862;SDS011;30597;49.628;10.850;2023-05-23T01:06:03;3.50;;;2.83;;
44862;SDS011;30597;49.628;10.850;2023-05-23T01:08:28;3.57;;;3.27;;
44862;SDS011;30597;49.628;10.850;2023-05-23T01:10:54;3.60;;;3.30;;
44862;SDS011;30597;49.628;10.850;2023-05-23T01:13:30;3.10;;;2.80;;
44862;SDS011;30597;49.628;10.850;2023-05-23T01:16:09;3.07;;;2.77;;
44862;SDS011;30597;49.628;10.850;2023-05-23T01:18:45;3.27;;;2.97;;
44862;SDS011;30597;49.628;10.850;2023-05-23T01:21:18;3.17;;;2.87;;
44862;SDS011;30597;49.628;10.850;2023-05-23T01:29:47;2.60;;;2.40;;
44862;SDS011;30597;49.628;10.850;2023-05-23T01:32:14;3.40;;;3.07;;
44862;SDS011;30597;49.628;10.850;2023-05-23T01:34:41;3.33;;;3.07;;
44862;SDS011;30597;49.628;10.850;2023-05-23T01:37:08;2.87;;;2.67;;
44862;SDS011;30597;49.628;10.850;2023-05-23T01:39:35;3.33;;;3.03;;
44862;SDS011;30597;49.628;10.850;2023-05-23T01:42:01;3.40;;;3.17;;
44862;SDS011;30597;49.628;10.850;2023-05-23T01:44:27;2.63;;;2.43;;
44862;SDS011;30597;49.628;10.850;2023-05-23T01:46:52;3.20;;;2.73;;
44862;SDS011;30597;49.628;10.850;2023-05-23T01:49:18;3.53;;;3.13;;
44862;SDS011;30597;49.628;10.850;2023-05-23T01:51:45;2.73;;;2.53;;
44862;SDS011;30597;49.628;10.850;2023-05-23T01:54:12;3.20;;;2.90;;
44862;SDS011;30597;49.628;10.850;2023-05-23T01:56:40;3.43;;;3.13;;
44862;SDS011;30597;49.628;10.850;2023-05-23T01:59:07;3.60;;;2.90;;
44862;SDS011;30597;49.628;10.850;2023-05-23T02:01:32;2.97;;;2.77;;
44862;SDS011;30597;49.628;10.850;2023-05-23T02:03:58;2.93;;;2.73;;
44862;SDS011;30597;49.628;10.850;2023-05-23T02:06:24;3.67;;;3.37;;
44862;SDS011;30597;49.628;10.850;2023-05-23T02:08:49;3.67;;;3.37;;
44862;SDS011;30597;49.628;10.850;2023-05-23T02:11:15;3.20;;;2.90;;
44862;SDS011;30597;49.628;10.850;2023-05-23T02:13:40;3.47;;;3.17;;
44862;SDS011;30597;49.628;10.850;2023-05-23T02:16:06;3.10;;;2.80;;
44862;SDS011;30597;49.628;10.850;2023-05-23T02:18:32;2.67;;;2.47;;
44862;SDS011;30597;49.628;10.850;2023-05-23T02:20:57;2.83;;;2.63;;
44862;SDS011;30597;49.628;10.850;2023-05-23T02:23:23;3.27;;;3.00;;
44862;SDS011;30597;49.628;10.850;2023-05-23T02:25:48;3.10;;;2.87;;
44862;SDS011;30597;49.628;10.850;2023-05-23T02:28:14;2.67;;;2.47;;
44862;SDS011;30597;49.628;10.850;2023-05-23T02:30:40;2.53;;;2.20;;
44862;SDS011;30597;49.628;10.850;2023-05-23T02:33:05;7.30;;;3.77;;
44862;SDS011;30597;49.628;10.850;2023-05-23T02:35:32;2.90;;;2.57;;
44862;SDS011;30597;49.628;10.850;2023-05-23T02:37:58;2.80;;;2.60;;
44862;SDS011;30597;49.628;10.850;2023-05-23T02:40:23;3.00;;;2.80;;
44862;SDS011;30597;49.628;10.850;2023-05-23T02:42:49;3.10;;;2.80;;
44862;SDS011;30597;49.628;10.850;2023-05-23T02:45:21;2.70;;;2.50;;
44862;SDS011;30597;49.628;10.850;2023-05-23T02:47:47;2.47;;;2.27;;
44862;SDS011;30597;49.628;10.850;2023-05-23T02:50:12;3.17;;;2.77;;
44862;SDS011;30597;49.628;10.850;2023-05-23T02:52:38;2.80;;;2.60;;
44862;SDS011;30597;49.628;10.850;2023-05-23T02:55:03;2.50;;;2.30;;
44862;SDS011;30597;49.628;10.850;2023-05-23T02:57:29;3.20;;;2.90;;
44862;SDS011;30597;49.628;10.850;2023-05-23T02:59:55;2.83;;;2.63;;
44862;SDS011;30597;49.628;10.850;2023-05-23T03:02:20;2.80;;;2.60;;
44862;SDS011;30597;49.628;10.850;2023-05-23T03:04:46;3.37;;;2.63;;
44862;SDS011;30597;49.628;10.850;2023-05-23T03:07:12;2.90;;;2.47;;
44862;SDS011;30597;49.628;10.850;2023-05-23T03:09:39;2.83;;;2.63;;
44862;SDS011;30597;49.628;10.850;2023-05-23T03:12:05;2.70;;;2.50;;
44862;SDS011;30597;49.628;10.850;2023-05-23T03:14:30;3.00;;;2.40;;
44862;SDS011;30597;49.628;10.850;2023-05-23T03:16:56;3.23;;;2.93;;
44862;SDS011;30597;49.628;10.850;2023-05-23T03:19:21;2.90;;;2.70;;
44862;SDS011;30597;49.628;10.850;2023-05-23T03:21:47;2.87;;;2.67;;
44862;SDS011;30597;49.628;10.850;2023-05-23T03:24:14;2.87;;;2.67;;
44862;SDS011;30597;49.628;10.850;2023-05-23T03:26:40;3.33;;;3.03;;
44862;SDS011;30597;49.628;10.850;2023-05-23T03:29:06;2.83;;;2.63;;
44862;SDS011;30597;49.628;10.850;2023-05-23T03:31:31;2.37;;;2.17;;
44862;SDS011;30597;49.628;10.850;2023-05-23T03:33:57;2.47;;;2.27;;
44862;SDS011;30597;49.628;10.850;2023-05-23T03:36:22;3.00;;;2.80;;
44862;SDS011;30597;49.628;10.850;2023-05-23T03:38:50;2.73;;;2.53;;
44862;SDS011;30597;49.628;10.850;2023-05-23T03:41:17;2.60;;;2.40;;
44862;SDS011;30597;49.628;10.850;2023-05-23T03:43:42;3.40;;;2.53;;
44862;SDS011;30597;49.628;10.850;2023-05-23T03:46:08;3.20;;;2.90;;
44862;SDS011;30597;49.628;10.850;2023-05-23T03:48:33;2.70;;;2.37;;
44862;SDS011;30597;49.628;10.850;2023-05-23T03:50:59;2.70;;;2.50;;
44862;SDS011;30597;49.628;10.850;2023-05-23T03:53:24;3.10;;;2.80;;
44862;SDS011;30597;49.628;10.850;2023-05-23T03:55:50;2.70;;;2.50;;
44862;SDS011;30597;49.628;10.850;2023-05-23T03:58:17;2.70;;;2.50;;
44862;SDS011;30597;49.628;10.850;2023-05-23T04:00:44;2.70;;;2.50;;
44862;SDS011;30597;49.628;10.850;2023-05-23T04:03:10;3.07;;;2.77;;
44862;SDS011;30597;49.628;10.850;2023-05-23T04:05:39;2.63;;;2.43;;
44862;SDS011;30597;49.628;10.850;2023-05-23T04:08:04;3.30;;;3.00;;
44862;SDS011;30597;49.628;10.850;2023-05-23T04:10:30;2.60;;;2.40;;
44862;SDS011;30597;49.628;10.850;2023-05-23T04:12:55;2.77;;;2.53;;
44862;SDS011;30597;49.628;10.850;2023-05-23T04:15:21;2.73;;;2.53;;
44862;SDS011;30597;49.628;10.850;2023-05-23T04:17:46;2.17;;;2.07;;
44862;SDS011;30597;49.628;10.850;2023-05-23T04:20:12;4.17;;;2.67;;
44862;SDS011;30597;49.628;10.850;2023-05-23T04:22:37;3.00;;;2.70;;
44862;SDS011;30597;49.628;10.850;2023-05-23T04:25:03;2.50;;;2.30;;
44862;SDS011;30597;49.628;10.850;2023-05-23T04:27:30;2.70;;;2.50;;
44862;SDS011;30597;49.628;10.850;2023-05-23T04:29:55;3.10;;;2.80;;
44862;SDS011;30597;49.628;10.850;2023-05-23T04:32:22;3.03;;;2.83;;
44862;SDS011;30597;49.628;10.850;2023-05-23T04:34:48;7.53;;;2.57;;
44862;SDS011;30597;49.628;10.850;2023-05-23T04:37:14;2.30;;;2.20;;
44862;SDS011;30597;49.628;10.850;2023-05-23T04:39:41;2.67;;;2.17;;
44862;SDS011;30597;49.628;10.850;2023-05-23T04:42:31;3.10;;;2.90;;
44862;SDS011;30597;49.628;10.850;2023-05-23T04:45:23;2.60;;;2.40;;
44862;SDS011;30597;49.628;10.850;2023-05-23T04:48:15;2.53;;;2.33;;
44862;SDS011;30597;49.628;10.850;2023-05-23T04:51:07;2.53;;;2.33;;
44862;SDS011;30597;49.628;10.850;2023-05-23T04:58:30;2.97;;;2.77;;
44862;SDS011;30597;49.628;10.850;2023-05-23T05:00:55;2.63;;;2.43;;
44862;SDS011;30597;49.628;10.850;2023-05-23T05:03:21;3.47;;;2.90;;
44862;SDS011;30597;49.628;10.850;2023-05-23T05:05:48;3.60;;;2.77;;
44862;SDS011;30597;49.628;10.850;2023-05-23T05:08:14;3.57;;;3.27;;
44862;SDS011;30597;49.628;10.850;2023-05-23T05:10:43;3.20;;;2.90;;
44862;SDS011;30597;49.628;10.850;2023-05-23T05:13:09;3.10;;;2.80;;
44862;SDS011;30597;49.628;10.850;2023-05-23T05:15:35;3.33;;;3.10;;
44862;SDS011;30597;49.628;10.850;2023-05-23T05:18:00;3.13;;;2.93;;
44862;SDS011;30597;49.628;10.850;2023-05-23T05:20:26;2.50;;;2.30;;
44862;SDS011;30597;49.628;10.850;2023-05-23T05:22:57;4.80;;;3.40;;
44862;SDS011;30597;49.628;10.850;2023-05-23T05:25:23;3.93;;;2.80;;
44862;SDS011;30597;49.628;10.850;2023-05-23T05:27:48;4.13;;;2.97;;
44862;SDS011;30597;49.628;10.850;2023-05-23T05:30:15;8.00;;;4.77;;
44862;SDS011;30597;49.628;10.850;2023-05-23T05:32:40;9.10;;;4.40;;
44862;SDS011;30597;49.628;10.850;2023-05-23T05:35:10;9.67;;;3.83;;
44862;SDS011;30597;49.628;10.850;2023-05-23T05:37:37;6.57;;;4.10;;
44862;SDS011;30597;49.628;10.850;2023-05-23T05:40:03;4.27;;;3.60;;
44862;SDS011;30597;49.628;10.850;2023-05-23T05:42:31;6.23;;;4.13;;
44862;SDS011;30597;49.628;10.850;2023-05-23T05:44:57;4.03;;;3.70;;
44862;SDS011;30597;49.628;10.850;2023-05-23T05:47:22;7.50;;;4.13;;
44862;SDS011;30597;49.628;10.850;2023-05-23T05:49:48;7.73;;;4.43;;
44862;SDS011;30597;49.628;10.850;2023-05-23T05:52:13;5.30;;;4.00;;
44862;SDS011;30597;49.628;10.850;2023-05-23T05:54:39;6.53;;;3.80;;
44862;SDS011;30597;49.628;10.850;2023-05-23T05:57:04;4.63;;;3.97;;
44862;SDS011;30597;49.628;10.850;2023-05-23T05:59:30;5.43;;;4.00;;
44862;SDS011;30597;49.628;10.850;2023-05-23T06:01:55;5.40;;;3.50;;
44862;SDS011;30597;49.628;10.850;2023-05-23T06:04:21;4.67;;;3.97;;
44862;SDS011;30597;49.628;10.850;2023-05-23T06:06:46;4.27;;;3.87;;
44862;SDS011;30597;49.628;10.850;2023-05-23T06:09:12;3.77;;;3.37;;
44862;SDS011;30597;49.628;10.850;2023-05-23T06:11:37;3.93;;;3.63;;
44862;SDS011;30597;49.628;10.850;2023-05-23T06:14:05;6.93;;;4.57;;
44862;SDS011;30597;49.628;10.850;2023-05-23T06:16:31;6.10;;;4.10;;
44862;SDS011;30597;49.628;10.850;2023-05-23T06:18:56;4.37;;;3.97;;
44862;SDS011;30597;49.628;10.850;2023-05-23T06:21:22;4.73;;;4.23;;
44862;SDS011;30597;49.628;10.850;2023-05-23T06:23:47;4.33;;;3.97;;
44862;SDS011;30597;49.628;10.850;2023-05-23T06:26:13;4.70;;;3.90;;
44862;SDS011;30597;49.628;10.850;2023-05-23T06:28:39;4.10;;;3.70;;
44862;SDS011;30597;49.628;10.850;2023-05-23T06:31:04;4.10;;;3.77;;
44862;SDS011;30597;49.628;10.850;2023-05-23T06:33:31;3.93;;;3.50;;
44862;SDS011;30597;49.628;10.850;2023-05-23T06:35:56;4.80;;;4.33;;
44862;SDS011;30597;49.628;10.850;2023-05-23T06:38:22;4.17;;;3.80;;
44862;SDS011;30597;49.628;10.850;2023-05-23T06:40:50;3.83;;;3.47;;
44862;SDS011;30597;49.628;10.850;2023-05-23T06:43:15;4.70;;;4.20;;
44862;SDS011;30597;49.628;10.850;2023-05-23T06:45:41;4.77;;;4.00;;
44862;SDS011;30597;49.628;10.850;2023-05-23T06:48:06;4.27;;;3.87;;
44862;SDS011;30597;49.628;10.850;2023-05-23T06:50:32;5.70;;;4.40;;
44862;SDS011;30597;49.628;10.850;2023-05-23T06:52:57;4.20;;;3.80;;
44862;SDS011;30597;49.628;10.850;2023-05-23T06:55:23;4.80;;;3.33;;
44862;SDS011;30597;49.628;10.850;2023-05-23T06:57:49;3.90;;;3.60;;
44862;SDS011;30597;49.628;10.850;2023-05-23T07:00:16;4.93;;;3.90;;
44862;SDS011;30597;49.628;10.850;2023-05-23T07:02:42;4.50;;;4.10;;
44862;SDS011;30597;49.628;10.850;2023-05-23T07:05:09;4.50;;;4.17;;
44862;SDS011;30597;49.628;10.850;2023-05-23T07:07:35;4.70;;;4.23;;
44862;SDS011;30597;49.628;10.850;2023-05-23T07:10:01;4.30;;;3.90;;
44862;SDS011;30597;49.628;10.850;2023-05-23T07:12:26;4.07;;;3.00;;
44862;SDS011;30597;49.628;10.850;2023-05-23T07:14:52;5.07;;;4.57;;
44862;SDS011;30597;49.628;10.850;2023-05-23T07:17:17;3.93;;;3.63;;
44862;SDS011;30597;49.628;10.850;2023-05-23T07:19:44;3.93;;;3.63;;
44862;SDS011;30597;49.628;10.850;2023-05-23T07:22:09;4.60;;;4.20;;
44862;SDS011;30597;49.628;10.850;2023-05-23T07:24:35;4.37;;;3.97;;
44862;SDS011;30597;49.628;10.850;2023-05-23T07:27:01;4.17;;;3.80;;
44862;SDS011;30597;49.628;10.850;2023-05-23T07:29:26;4.37;;;3.57;;
44862;SDS011;30597;49.628;10.850;2023-05-23T07:31:52;4.27;;;3.97;;
44862;SDS011;30597;49.628;10.850;2023-05-23T07:34:17;4.37;;;3.97;;
44862;SDS011;30597;49.628;10.850;2023-05-23T07:36:43;3.87;;;3.57;;
44862;SDS011;30597;49.628;10.850;2023-05-23T07:39:09;4.33;;;4.00;;
44862;SDS011;30597;49.628;10.850;2023-05-23T07:41:35;4.40;;;4.10;;
44862;SDS011;30597;49.628;10.850;2023-05-23T07:44:00;3.63;;;3.30;;
44862;SDS011;30597;49.628;10.850;2023-05-23T07:46:26;4.03;;;3.47;;
44862;SDS011;30597;49.628;10.850;2023-05-23T07:48:51;3.97;;;3.67;;
44862;SDS011;30597;49.628;10.850;2023-05-23T07:51:17;4.63;;;4.23;;
44862;SDS011;30597;49.628;10.850;2023-05-23T07:53:45;4.60;;;4.20;;
44862;SDS011;30597;49.628;10.850;2023-05-23T07:56:11;4.00;;;3.70;;
44862;SDS011;30597;49.628;10.850;2023-05-23T07:58:36;3.30;;;3.00;;
44862;SDS011;30597;49.628;10.850;2023-05-23T08:01:02;4.67;;;4.03;;
44862;SDS011;30597;49.628;10.850;2023-05-23T08:03:27;4.13;;;3.73;;
44862;SDS011;30597;49.628;10.850;2023-05-23T08:05:53;3.80;;;3.50;;
44862;SDS011;30597;49.628;10.850;2023-05-23T08:08:19;4.27;;;3.47;;
44862;SDS011;30597;49.628;10.850;2023-05-23T08:10:44;4.10;;;3.70;;
44862;SDS011;30597;49.628;10.850;2023-05-23T08:13:11;4.00;;;3.70;;
44862;SDS011;30597;49.628;10.850;2023-05-23T08:15:36;4.07;;;3.50;;
44862;SDS011;30597;49.628;10.850;2023-05-23T08:18:02;4.17;;;3.80;;
44862;SDS011;30597;49.628;10.850;2023-05-23T08:20:29;3.80;;;3.50;;
44862;SDS011;30597;49.628;10.850;2023-05-23T08:23:04;4.60;;;4.20;;
44862;SDS011;30597;49.628;10.850;2023-05-23T08:25:29;3.97;;;3.67;;
44862;SDS011;30597;49.628;10.850;2023-05-23T08:27:56;5.40;;;3.80;;
44862;SDS011;30597;49.628;10.850;2023-05-23T08:30:22;3.77;;;3.47;;
44862;SDS011;30597;49.628;10.850;2023-05-23T08:32:49;3.87;;;3.57;;
44862;SDS011;30597;49.628;10.850;2023-05-23T08:35:16;4.27;;;3.90;;
44862;SDS011;30597;49.628;10.850;2023-05-23T08:37:42;3.93;;;3.40;;
44862;SDS011;30597;49.628;10.850;2023-05-23T08:40:10;3.77;;;3.47;;
44862;SDS011;30597;49.628;10.850;2023-05-23T08:42:41;3.63;;;3.33;;
44862;SDS011;30597;49.628;10.850;2023-05-23T08:45:07;3.60;;;3.30;;
44862;SDS011;30597;49.628;10.850;2023-05-23T08:47:34;3.53;;;3.23;;
44862;SDS011;30597;49.628;10.850;2023-05-23T08:50:07;4.13;;;3.83;;
44862;SDS011;30597;49.628;10.850;2023-05-23T08:52:36;4.00;;;3.70;;
44862;SDS011;30597;49.628;10.850;2023-05-23T08:55:09;3.87;;;3.57;;
44862;SDS011;30597;49.628;10.850;2023-05-23T08:57:35;3.90;;;3.60;;
44862;SDS011;30597;49.628;10.850;2023-05-23T09:00:03;4.50;;;4.10;;
44862;SDS011;30597;49.628;10.850;2023-05-23T09:02:34;3.97;;;3.67;;
44862;SDS011;30597;49.628;10.850;2023-05-23T09:05:01;3.77;;;3.50;;
44862;SDS011;30597;49.628;10.850;2023-05-23T09:07:27;5.07;;;4.67;;
44862;SDS011;30597;49.628;10.850;2023-05-23T09:09:53;4.37;;;4.07;;
44862;SDS011;30597;49.628;10.850;2023-05-23T09:12:19;3.50;;;3.23;;
44862;SDS011;30597;49.628;10.850;2023-05-23T09:14:47;3.90;;;3.50;;
44862;SDS011;30597;49.628;10.850;2023-05-23T09:17:19;3.90;;;3.50;;
44862;SDS011;30597;49.628;10.850;2023-05-23T09:19:45;4.10;;;3.80;;
44862;SDS011;30597;49.628;10.850;2023-05-23T09:22:13;4.40;;;4.00;;
44862;SDS011;30597;49.628;10.850;2023-05-23T09:24:39;3.97;;;3.57;;
44862;SDS011;30597;49.628;10.850;2023-05-23T09:27:05;3.87;;;3.57;;
44862;SDS011;30597;49.628;10.850;2023-05-23T09:29:31;3.43;;;3.23;;
44862;SDS011;30597;49.628;10.850;2023-05-23T09:32:10;3.80;;;3.50;;
44862;SDS011;30597;49.628;10.850;2023-05-23T09:34:58;3.90;;;3.60;;
44862;SDS011;30597;49.628;10.850;2023-05-23T09:39:55;4.03;;;3.63;;
44862;SDS011;30597;49.628;10.850;2023-05-23T09:42:21;4.17;;;3.70;;
44862;SDS011;30597;49.628;10.850;2023-05-23T09:44:47;3.23;;;3.03;;
44862;SDS011;30597;49.628;10.850;2023-05-23T09:47:14;3.77;;;3.47;;
44862;SDS011;30597;49.628;10.850;2023-05-23T09:49:44;4.10;;;3.70;;
44862;SDS011;30597;49.628;10.850;2023-05-23T09:52:10;3.57;;;3.30;;
44862;SDS011;30597;49.628;10.850;2023-05-23T09:54:37;3.73;;;3.37;;
44862;SDS011;30597;49.628;10.850;2023-05-23T09:57:03;3.50;;;3.20;;
44862;SDS011;30597;49.628;10.850;2023-05-23T09:59:35;3.50;;;3.20;;
44862;SDS011;30597;49.628;10.850;2023-05-23T10:02:03;4.00;;;3.70;;
44862;SDS011;30597;49.628;10.850;2023-05-23T10:04:33;3.73;;;3.43;;
44862;SDS011;30597;49.628;10.850;2023-05-23T10:07:20;4.10;;;3.80;;
44862;SDS011;30597;49.628;10.850;2023-05-23T10:09:51;4.00;;;3.60;;
44862;SDS011;30597;49.628;10.850;2023-05-23T10:15:14;3.67;;;3.37;;
44862;SDS011;30597;49.628;10.850;2023-05-23T10:20:27;3.50;;;3.20;;
44862;SDS011;30597;49.628;10.850;2023-05-23T10:23:01;3.10;;;2.90;;
44862;SDS011;30597;49.628;10.850;2023-05-23T10:25:29;3.93;;;3.57;;
44862;SDS011;30597;49.628;10.850;2023-05-23T10:27:55;4.10;;;2.93;;
44862;SDS011;30597;49.628;10.850;2023-05-23T10:30:26;3.70;;;3.40;;
44862;SDS011;30597;49.628;10.850;2023-05-23T10:32:52;3.43;;;3.13;;
44862;SDS011;30597;49.628;10.850;2023-05-23T10:35:23;4.47;;;3.30;;
44862;SDS011;30597;49.628;10.850;2023-05-23T10:40:54;3.70;;;3.40;;
44862;SDS011;30597;49.628;10.850;2023-05-23T10:46:48;3.63;;;3.33;;
44862;SDS011;30597;49.628;10.850;2023-05-23T10:49:18;3.30;;;3.00;;
44862;SDS011;30597;49.628;10.850;2023-05-23T10:51:48;3.50;;;3.10;;
44862;SDS011;30597;49.628;10.850;2023-05-23T10:54:15;3.53;;;3.23;;
44862;SDS011;30597;49.628;10.850;2023-05-23T10:56:46;4.20;;;3.80;;
44862;SDS011;30597;49.628;10.850;2023-05-23T10:59:26;3.33;;;3.03;;
44862;SDS011;30597;49.628;10.850;2023-05-23T11:01:52;3.70;;;3.40;;
44862;SDS011;30597;49.628;10.850;2023-05-23T11:04:26;3.67;;;3.37;;
44862;SDS011;30597;49.628;10.850;2023-05-23T11:06:53;3.70;;;3.40;;
44862;SDS011;30597;49.628;10.850;2023-05-23T11:09:19;4.23;;;3.20;;
44862;SDS011;30597;49.628;10.850;2023-05-23T11:14:31;3.20;;;3.00;;
44862;SDS011;30597;49.628;10.850;2023-05-23T11:17:00;3.67;;;3.30;;
44862;SDS011;30597;49.628;10.850;2023-05-23T11:20:00;3.23;;;2.93;;
44862;SDS011;30597;49.628;10.850;2023-05-23T11:22:31;3.33;;;3.07;;
44862;SDS011;30597;49.628;10.850;2023-05-23T11:24:58;3.50;;;3.20;;
44862;SDS011;30597;49.628;10.850;2023-05-23T11:27:31;3.27;;;3.00;;
44862;SDS011;30597;49.628;10.850;2023-05-23T11:32:41;3.93;;;3.57;;
44862;SDS011;30597;49.628;10.850;2023-05-23T11:35:15;3.50;;;3.20;;
44862;SDS011;30597;49.628;10.850;2023-05-23T11:37:41;2.73;;;2.50;;
44862;SDS011;30597;49.628;10.850;2023-05-23T11:40:30;3.80;;;3.50;;
44862;SDS011;30597;49.628;10.850;2023-05-23T11:42:57;3.50;;;3.20;;
44862;SDS011;30597;49.628;10.850;2023-05-23T11:45:24;3.90;;;3.60;;
44862;SDS011;30597;49.628;10.850;2023-05-23T11:47:51;3.40;;;3.10;;
44862;SDS011;30597;49.628;10.850;2023-05-23T11:50:17;4.03;;;3.27;;
44862;SDS011;30597;49.628;10.850;2023-05-23T11:52:44;3.50;;;3.20;;
44862;SDS011;30597;49.628;10.850;2023-05-23T11:55:15;3.40;;;3.20;;
44862;SDS011;30597;49.628;10.850;2023-05-23T11:57:41;3.27;;;2.97;;
44862;SDS011;30597;49.628;10.850;2023-05-23T12:00:08;3.60;;;3.10;;
44862;SDS011;30597;49.628;10.850;2023-05-23T12:02:38;3.00;;;2.80;;
44862;SDS011;30597;49.628;10.850;2023-05-23T12:05:12;3.30;;;3.00;;
44862;SDS011;30597;49.628;10.850;2023-05-23T12:07:41;3.80;;;3.40;;
44862;SDS011;30597;49.628;10.850;2023-05-23T12:10:11;3.73;;;3.43;;
44862;SDS011;30597;49.628;10.850;2023-05-23T12:12:39;3.37;;;3.07;;
44862;SDS011;30597;49.628;10.850;2023-05-23T12:15:06;3.30;;;3.00;;
44862;SDS011;30597;49.628;10.850;2023-05-23T12:17:36;2.73;;;2.53;;
44862;SDS011;30597;49.628;10.850;2023-05-23T12:20:03;3.10;;;2.90;;
44862;SDS011;30597;49.628;10.850;2023-05-23T12:22:30;2.60;;;2.40;;
44862;SDS011;30597;49.628;10.850;2023-05-23T12:24:55;3.73;;;3.40;;
44862;SDS011;30597;49.628;10.850;2023-05-23T12:27:27;3.23;;;2.93;;
44862;SDS011;30597;49.628;10.850;2023-05-23T12:30:03;3.10;;;2.90;;
44862;SDS011;30597;49.628;10.850;2023-05-23T12:32:38;3.43;;;3.13;;
44862;SDS011;30597;49.628;10.850;2023-05-23T12:35:06;3.43;;;3.13;;
44862;SDS011;30597;49.628;10.850;2023-05-23T12:37:32;3.00;;;2.80;;
44862;SDS011;30597;49.628;10.850;2023-05-23T12:40:07;3.70;;;3.40;;
44862;SDS011;30597;49.628;10.850;2023-05-23T12:42:49;2.90;;;2.70;;
44862;SDS011;30597;49.628;10.850;2023-05-23T12:45:19;3.27;;;3.07;;
44862;SDS011;30597;49.628;10.850;2023-05-23T12:47:54;3.20;;;2.97;;
44862;SDS011;30597;49.628;10.850;2023-05-23T12:50:20;3.30;;;3.10;;
44862;SDS011;30597;49.628;10.850;2023-05-23T12:52:45;3.20;;;2.90;;
44862;SDS011;30597;49.628;10.850;2023-05-23T12:55:11;3.60;;;3.30;;
44862;SDS011;30597;49.628;10.850;2023-05-23T12:57:37;3.23;;;3.03;;
44862;SDS011;30597;49.628;10.850;2023-05-23T13:00:03;3.20;;;2.90;;
44862;SDS011;30597;49.628;10.850;2023-05-23T13:02:29;2.80;;;2.60;;
44862;SDS011;30597;49.628;10.850;2023-05-23T13:04:54;2.80;;;2.60;;
44862;SDS011;30597;49.628;10.850;2023-05-23T13:07:21;3.47;;;3.17;;
44862;SDS011;30597;49.628;10.850;2023-05-23T13:09:47;3.03;;;2.83;;
44862;SDS011;30597;49.628;10.850;2023-05-23T13:12:13;3.10;;;2.80;;
44862;SDS011;30597;49.628;10.850;2023-05-23T13:14:39;2.90;;;2.70;;
44862;SDS011;30597;49.628;10.850;2023-05-23T13:17:05;3.17;;;2.90;;
44862;SDS011;30597;49.628;10.850;2023-05-23T13:19:30;3.07;;;2.87;;
44862;SDS011;30597;49.628;10.850;2023-05-23T13:21:56;3.00;;;2.80;;
44862;SDS011;30597;49.628;10.850;2023-05-23T13:24:21;2.93;;;2.73;;
44862;SDS011;30597;49.628;10.850;2023-05-23T13:26:47;2.77;;;2.57;;
44862;SDS011;30597;49.628;10.850;2023-05-23T13:29:13;2.40;;;2.20;;
44862;SDS011;30597;49.628;10.850;2023-05-23T13:31:38;2.63;;;2.43;;
44862;SDS011;30597;49.628;10.850;2023-05-23T13:34:04;2.50;;;2.30;;
44862;SDS011;30597;49.628;10.850;2023-05-23T13:36:29;2.63;;;2.43;;
44862;SDS011;30597;49.628;10.850;2023-05-23T13:38:55;3.00;;;2.80;;
44862;SDS011;30597;49.628;10.850;2023-05-23T13:41:21;3.00;;;2.80;;
44862;SDS011;30597;49.628;10.850;2023-05-23T13:43:47;2.90;;;2.70;;
44862;SDS011;30597;49.628;10.850;2023-05-23T13:46:12;2.53;;;2.33;;
44862;SDS011;30597;49.628;10.850;2023-05-23T13:48:38;3.30;;;3.00;;
44862;SDS011;30597;49.628;10.850;2023-05-23T13:51:04;2.63;;;2.30;;
44862;SDS011;30597;49.628;10.850;2023-05-23T13:53:30;2.80;;;2.60;;
44862;SDS011;30597;49.628;10.850;2023-05-23T13:55:56;2.20;;;2.00;;
44862;SDS011;30597;49.628;10.850;2023-05-23T13:58:21;2.90;;;2.70;;
44862;SDS011;30597;49.628;10.850;2023-05-23T14:00:47;2.67;;;2.47;;
44862;SDS011;30597;49.628;10.850;2023-05-23T14:03:12;2.73;;;2.53;;
44862;SDS011;30597;49.628;10.850;2023-05-23T14:05:39;2.57;;;2.37;;
44862;SDS011;30597;49.628;10.850;2023-05-23T14:08:05;2.90;;;2.70;;
44862;SDS011;30597;49.628;10.850;2023-05-23T14:10:31;3.03;;;2.83;;
44862;SDS011;30597;49.628;10.850;2023-05-23T14:12:59;2.60;;;2.40;;
44862;SDS011;30597;49.628;10.850;2023-05-23T14:15:25;2.67;;;2.47;;
44862;SDS011;30597;49.628;10.850;2023-05-23T14:17:52;2.60;;;2.40;;
44862;SDS011;30597;49.628;10.850;2023-05-23T14:20:19;2.60;;;2.40;;
44862;SDS011;30597;49.628;10.850;2023-05-23T14:22:48;3.13;;;2.93;;
44862;SDS011;30597;49.628;10.850;2023-05-23T14:25:15;2.80;;;2.50;;
44862;SDS011;30597;49.628;10.850;2023-05-23T14:27:41;2.83;;;2.63;;
44862;SDS011;30597;49.628;10.850;2023-05-23T14:30:07;2.00;;;1.90;;
44862;SDS011;30597;49.628;10.850;2023-05-23T14:32:33;3.03;;;2.83;;
44862;SDS011;30597;49.628;10.850;2023-05-23T14:35:03;3.10;;;2.90;;
44862;SDS011;30597;49.628;10.850;2023-05-23T14:37:29;2.67;;;2.47;;
44862;SDS011;30597;49.628;10.850;2023-05-23T14:39:54;2.50;;;2.30;;
44862;SDS011;30597;49.628;10.850;2023-05-23T14:42:20;3.10;;;2.90;;
44862;SDS011;30597;49.628;10.850;2023-05-23T14:44:46;2.70;;;2.50;;
44862;SDS011;30597;49.628;10.850;2023-05-23T14:47:11;2.53;;;2.33;;
44862;SDS011;30597;49.628;10.850;2023-05-23T14:49:40;2.60;;;2.40;;
44862;SDS011;30597;49.628;10.850;2023-05-23T14:52:05;2.90;;;2.70;;
44862;SDS011;30597;49.628;10.850;2023-05-23T14:54:31;2.43;;;2.23;;
44862;SDS011;30597;49.628;10.850;2023-05-23T14:56:57;3.33;;;3.03;;
44862;SDS011;30597;49.628;10.850;2023-05-23T14:59:22;2.33;;;2.23;;
44862;SDS011;30597;49.628;10.850;2023-05-23T15:01:48;2.00;;;1.90;;
44862;SDS011;30597;49.628;10.850;2023-05-23T15:04:13;2.70;;;2.50;;
44862;SDS011;30597;49.628;10.850;2023-05-23T15:06:39;2.37;;;2.27;;